Time,TemperatureF,DewpointF,PressureIn,WindDirection,WindDirectionDegrees,WindSpeedMPH,WindSpeedGustMPH,Humidity,HourlyPrecipIn,Conditions,Clouds,dailyrainin,SoftwareType,DateUTC
2013-07-05 00:02:00,59.0,41.0,-100.00,ESE,102,4.0,6.0,52,0.00,,,-99.99,,2013-07-05 06:02:00,
2013-07-05 00:13:00,59.0,42.0,-100.00,ESE,102,4.0,6.0,52,0.00,,,-99.99,,2013-07-05 06:13:00,
2013-07-05 00:34:00,59.0,42.0,-100.00,SE,133,1.0,4.0,53,0.00,,,-99.99,,2013-07-05 06:34:00,
2013-07-05 00:43:00,58.0,42.0,-100.00,WSW,240,3.0,7.0,56,0.00,,,-99.99,,2013-07-05 06:43:00,
2013-07-05 01:02:00,58.0,42.0,-100.00,SSW,203,3.0,6.0,56,0.00,,,-99.99,,2013-07-05 07:02:00,
2013-07-05 01:12:00,58.0,43.0,-100.00,SW,215,3.0,6.0,56,0.00,,,-99.99,,2013-07-05 07:12:00,
2013-07-05 01:43:00,58.0,43.0,-100.00,SSW,199,3.0,6.0,58,0.00,,,-99.99,,2013-07-05 07:43:00,
2013-07-05 01:53:00,58.0,43.0,-100.00,South,188,4.0,4.0,57,0.00,,,-99.99,,2013-07-05 07:53:00,
2013-07-05 02:02:00,58.0,43.0,-100.00,SSE,161,4.0,6.0,56,0.00,,,-99.99,,2013-07-05 08:02:00,
2013-07-05 02:43:00,58.0,43.0,-100.00,South,176,2.0,3.0,57,0.00,,,-99.99,,2013-07-05 08:43:00,
2013-07-05 03:05:00,57.0,43.0,-100.00,SSW,199,2.0,4.0,59,0.00,,,-99.99,,2013-07-05 09:05:00,
2013-07-05 03:24:00,57.0,42.0,-100.00,SW,234,2.0,4.0,57,0.00,,,-99.99,,2013-07-05 09:24:00,
2013-07-05 03:36:00,58.0,42.0,-100.00,SW,230,1.0,2.0,55,0.00,,,-99.99,,2013-07-05 09:36:00,
2013-07-05 03:45:00,57.0,42.0,-100.00,West,268,4.0,6.0,57,0.00,,,-99.99,,2013-07-05 09:45:00,
2013-07-05 03:53:00,58.0,42.0,-100.00,SW,229,3.0,5.0,55,0.00,,,-99.99,,2013-07-05 09:53:00,
2013-07-05 04:46:00,54.0,48.0,-100.00,NW,319,4.0,7.0,78,0.00,,,-99.99,,2013-07-05 10:46:00,
2013-07-05 04:55:00,54.0,47.0,-100.00,NNW,332,5.0,8.0,78,0.00,,,-99.99,,2013-07-05 10:55:00,
2013-07-05 05:05:00,54.0,47.0,-100.00,North,349,4.0,6.0,76,0.00,,,-99.99,,2013-07-05 11:05:00,
2013-07-05 05:36:00,55.0,46.0,-100.00,West,277,5.0,7.0,70,0.01,,,-99.99,,2013-07-05 11:36:00,
2013-07-05 05:45:00,54.0,48.0,-100.00,WNW,296,2.0,4.0,78,0.00,,,-99.99,,2013-07-05 11:45:00,
2013-07-05 05:55:00,54.0,47.0,-100.00,WNW,296,4.0,5.0,78,0.00,,,-99.99,,2013-07-05 11:55:00,
2013-07-05 06:05:00,55.0,47.0,-100.00,NW,306,3.0,4.0,76,0.00,,,-99.99,,2013-07-05 12:05:00,
2013-07-05 06:54:00,55.0,47.0,-100.00,NNW,332,2.0,4.0,74,0.01,,,-99.99,,2013-07-05 12:54:00,
2013-07-05 07:05:00,56.0,46.0,-100.00,NNW,342,1.0,2.0,70,0.01,,,-99.99,,2013-07-05 13:05:00,
2013-07-05 07:46:00,57.0,47.0,-100.00,SW,222,6.0,10.0,68,0.00,,,-99.99,,2013-07-05 13:46:00,
2013-07-05 09:05:00,61.0,46.0,-100.00,SSW,200,11.0,17.0,57,0.00,,,-99.99,,2013-07-05 15:05:00,
2013-07-05 09:43:00,63.0,47.0,-100.00,SSW,200,12.0,17.0,56,0.00,,,-99.99,,2013-07-05 15:43:00,
2013-07-05 10:01:00,64.0,47.0,-100.00,SW,219,12.0,19.0,54,0.00,,,-99.99,,2013-07-05 16:01:00,
2013-07-05 10:44:00,67.0,45.0,-100.00,West,264,11.0,17.0,46,0.00,,,-99.99,,2013-07-05 16:44:00,
2013-07-05 11:01:00,68.0,46.0,-100.00,West,278,9.0,16.0,44,0.00,,,-99.99,,2013-07-05 17:01:00,
2013-07-05 11:53:00,68.0,45.0,-100.00,West,278,11.0,17.0,44,0.00,,,-99.99,,2013-07-05 17:53:00,
2013-07-05 12:43:00,68.0,44.0,-100.00,West,278,7.0,11.0,42,0.00,,,-99.99,,2013-07-05 18:43:00,
2013-07-05 13:01:00,70.0,44.0,-100.00,West,278,11.0,17.0,39,0.00,,,-99.99,,2013-07-05 19:01:00,
2013-07-05 14:43:00,64.0,49.0,-100.00,NW,318,4.0,7.0,57,0.01,,,-99.99,,2013-07-05 20:43:00,
2013-07-05 15:01:00,65.0,49.0,-100.00,NW,323,4.0,6.0,58,0.00,,,-99.99,,2013-07-05 21:01:00,
2013-07-05 15:42:00,59.0,52.0,-100.00,NNW,329,8.0,12.0,77,0.00,,,-99.99,,2013-07-05 21:42:00,
2013-07-05 17:02:00,53.0,50.0,-100.00,WNW,299,4.0,7.0,89,0.00,,,-99.99,,2013-07-05 23:02:00,
2013-07-05 17:32:00,56.0,49.0,-100.00,SW,233,7.0,16.0,79,0.04,,,-99.99,,2013-07-05 23:32:00,
2013-07-05 18:01:00,58.0,48.0,-100.00,West,263,7.0,9.0,71,0.00,,,-99.99,,2013-07-06 00:01:00,
2013-07-05 19:02:00,62.0,49.0,-100.00,WSW,250,7.0,9.0,63,0.00,,,-99.99,,2013-07-06 01:02:00,
2013-07-05 19:22:00,61.0,49.0,-100.00,WSW,237,6.0,7.0,64,0.00,,,-99.99,,2013-07-06 01:22:00,
2013-07-05 19:42:00,61.0,49.0,-100.00,WSW,248,4.0,6.0,64,0.00,,,-99.99,,2013-07-06 01:42:00,
2013-07-05 20:43:00,60.0,49.0,-100.00,WSW,246,1.0,2.0,66,0.00,,,-99.99,,2013-07-06 02:43:00,
2013-07-05 21:43:00,57.0,49.0,-100.00,SE,138,1.0,2.0,74,0.00,,,-99.99,,2013-07-06 03:43:00,
2013-07-05 22:43:00,57.0,48.0,-100.00,SSW,196,4.0,6.0,73,0.00,,,-99.99,,2013-07-06 04:43:00,
2013-07-05 23:02:00,57.0,47.0,-100.00,SSW,196,4.0,6.0,69,0.00,,,-99.99,,2013-07-06 05:02:00,